createdAt,value
2022-10-03T00:00:14.255Z,61.50
2022-10-03T00:03:35.275Z,61.40
2022-10-03T00:06:34.864Z,61.30
2022-10-03T00:09:48.308Z,61.20
2022-10-03T00:12:52.147Z,61.10
2022-10-03T00:15:45.955Z,61.10
2022-10-03T00:18:46.476Z,61.50
2022-10-03T00:21:53.102Z,61.40
2022-10-03T00:24:51.965Z,61.50
2022-10-03T00:27:44.515Z,61.50
2022-10-03T00:30:57.997Z,61.80
2022-10-03T00:34:02.511Z,62.10
2022-10-03T00:37:09.482Z,61.80
2022-10-03T00:40:16.979Z,61.90
2022-10-03T00:43:35.848Z,62.00
2022-10-03T00:46:54.604Z,62.10
2022-10-03T00:50:21.232Z,62.10
2022-10-03T00:53:34.426Z,62.20
2022-10-03T00:56:40.452Z,62.20
2022-10-03T00:59:47.899Z,62.30
2022-10-03T01:02:56.854Z,62.30
2022-10-03T01:06:00.640Z,62.20
2022-10-03T01:09:17.629Z,62.40
2022-10-03T01:12:48.536Z,62.20
2022-10-03T01:15:48.200Z,62.10
2022-10-03T01:18:46.807Z,62.00
2022-10-03T01:21:43.563Z,61.90
2022-10-03T01:24:51.408Z,61.70
2022-10-03T01:28:00.932Z,61.80
2022-10-03T01:30:54.005Z,61.90
2022-10-03T01:33:45.571Z,62.10
2022-10-03T01:36:38.393Z,62.10
2022-10-03T01:39:29.844Z,62.20
2022-10-03T01:42:31.469Z,62.30
2022-10-03T01:45:30.512Z,62.20
2022-10-03T01:48:27.810Z,62.10
2022-10-03T01:51:21.645Z,62.20
2022-10-03T01:54:18.734Z,62.40
2022-10-03T01:57:15.092Z,62.30
2022-10-03T02:00:07.675Z,62.50
2022-10-03T02:03:08.369Z,62.40
2022-10-03T02:06:04.059Z,62.30
2022-10-03T02:08:57.764Z,62.30
2022-10-03T02:12:00.874Z,62.30
2022-10-03T02:14:55.287Z,62.30
2022-10-03T02:17:54.489Z,62.40
2022-10-03T02:20:48.735Z,62.50
2022-10-03T02:23:46.015Z,62.60
2022-10-03T02:27:14.833Z,62.40
2022-10-03T02:30:15.195Z,62.40
2022-10-03T02:33:37.939Z,62.30
2022-10-03T02:37:03.689Z,62.30
2022-10-03T02:40:35.991Z,62.20
2022-10-03T02:43:49.464Z,62.20
2022-10-03T02:47:16.731Z,62.10
2022-10-03T02:50:42.483Z,62.00
2022-10-03T02:54:03.367Z,61.90
2022-10-03T02:57:22.406Z,62.10
2022-10-03T03:00:13.187Z,62.70
2022-10-03T03:03:18.867Z,62.70
2022-10-03T03:06:47.751Z,62.70
2022-10-03T03:10:13.524Z,62.50
2022-10-03T03:13:37.063Z,62.40
2022-10-03T03:16:49.896Z,62.50
2022-10-03T03:20:01.121Z,62.20
2022-10-03T03:23:11.961Z,62.30
2022-10-03T03:26:25.221Z,62.30
2022-10-03T03:29:22.925Z,62.40
2022-10-03T03:32:22.526Z,62.20
2022-10-03T03:35:19.348Z,62.20
2022-10-03T03:38:26.510Z,62.70
2022-10-03T03:41:50.681Z,62.10
2022-10-03T03:45:09.403Z,62.20
2022-10-03T03:48:15.750Z,62.20
2022-10-03T03:51:18.486Z,62.20
2022-10-03T03:54:27.972Z,62.50
2022-10-03T03:58:00.519Z,62.50
2022-10-03T04:01:09.169Z,62.70
2022-10-03T04:04:07.693Z,62.90
2022-10-03T04:07:03.843Z,62.90
2022-10-03T04:10:12.381Z,62.90
2022-10-03T04:13:25.200Z,62.80
2022-10-03T04:17:20.678Z,63.30
2022-10-03T04:20:14.202Z,63.10
2022-10-03T04:23:21.538Z,63.40
2022-10-03T04:26:25.846Z,63.40
2022-10-03T04:29:33.864Z,63.30
2022-10-03T04:32:38.643Z,63.00
2022-10-03T04:36:04.315Z,62.90
2022-10-03T04:39:01.999Z,62.70
2022-10-03T04:41:57.143Z,62.50
2022-10-03T04:45:02.798Z,62.40
2022-10-03T04:47:55.238Z,62.90
2022-10-03T04:50:52.147Z,62.40
2022-10-03T04:53:48.839Z,62.70
2022-10-03T04:56:50.970Z,62.70
2022-10-03T04:59:54.009Z,62.60
2022-10-03T05:02:49.304Z,62.40
2022-10-03T05:05:52.035Z,62.40
2022-10-03T05:08:48.922Z,62.20
2022-10-03T05:11:49.178Z,62.20
2022-10-03T05:14:53.236Z,62.10
2022-10-03T05:17:48.420Z,62.10
2022-10-03T05:20:49.625Z,62.10
2022-10-03T05:23:48.411Z,62.00
2022-10-03T05:26:46.591Z,62.10
2022-10-03T05:29:42.719Z,62.10
2022-10-03T05:32:39.067Z,62.20
2022-10-03T05:35:44.706Z,62.10
2022-10-03T05:39:35.179Z,62.10
2022-10-03T05:42:39.783Z,62.40
2022-10-03T05:45:32.083Z,62.20
2022-10-03T05:48:34.655Z,62.50
2022-10-03T05:51:48.397Z,62.90
2022-10-03T05:54:59.196Z,62.80
2022-10-03T05:58:30.805Z,62.60
2022-10-03T06:01:59.704Z,62.70
2022-10-03T06:05:03.404Z,62.70
2022-10-03T06:08:14.841Z,62.80
2022-10-03T06:11:14.878Z,62.80
2022-10-03T06:14:35.571Z,62.50
2022-10-03T06:18:04.353Z,62.90
2022-10-03T06:21:24.615Z,63.40
2022-10-03T06:24:54.389Z,63.20
2022-10-03T06:28:26.833Z,63.30
2022-10-03T06:31:45.354Z,63.40
2022-10-03T06:35:15.900Z,63.60
2022-10-03T06:38:43.028Z,63.10
2022-10-03T06:42:09.472Z,64.10
2022-10-03T06:45:20.247Z,64.00
2022-10-03T06:48:36.271Z,63.90
2022-10-03T06:51:58.435Z,64.10
2022-10-03T06:55:24.971Z,64.60
2022-10-03T06:58:49.162Z,63.90
2022-10-03T07:02:14.906Z,64.00
2022-10-03T07:05:50.312Z,63.80
2022-10-03T07:09:13.189Z,63.90
2022-10-03T07:12:34.157Z,63.60
2022-10-03T07:16:08.398Z,63.60
2022-10-03T07:19:20.495Z,63.40
2022-10-03T07:22:32.079Z,62.70
2022-10-03T07:25:59.349Z,62.50
2022-10-03T07:29:16.247Z,62.00
2022-10-03T07:32:25.628Z,62.10
2022-10-03T07:35:52.600Z,61.60
2022-10-03T07:39:12.892Z,61.60
2022-10-03T07:42:26.949Z,61.50
2022-10-03T07:45:35.758Z,61.60
2022-10-03T07:49:19.356Z,61.60
2022-10-03T07:52:48.881Z,61.90
2022-10-03T07:55:53.438Z,62.00
2022-10-03T07:58:49.527Z,61.70
2022-10-03T08:01:57.359Z,62.00
2022-10-03T08:05:22.839Z,61.00
2022-10-03T08:08:37.934Z,60.90
2022-10-03T08:12:00.793Z,57.00
2022-10-03T08:14:58.250Z,51.30
2022-10-03T08:18:21.460Z,46.90
2022-10-03T08:21:13.117Z,45.30
2022-10-03T08:24:35.029Z,43.90
2022-10-03T08:27:52.905Z,43.00
2022-10-03T08:30:56.494Z,42.40
2022-10-03T08:34:18.305Z,42.00
2022-10-03T08:37:31.431Z,41.00
2022-10-03T08:41:02.741Z,40.90
2022-10-03T08:44:22.061Z,40.30
2022-10-03T08:47:47.006Z,39.50
2022-10-03T08:51:04.387Z,39.10
2022-10-03T08:54:11.059Z,38.60
2022-10-03T08:57:09.379Z,39.20
2022-10-03T09:00:16.711Z,38.60
2022-10-03T09:03:58.950Z,37.50
2022-10-03T09:07:22.021Z,37.30
2022-10-03T09:10:37.016Z,36.50
2022-10-03T09:14:16.963Z,37.00
2022-10-03T09:17:27.971Z,37.60
2022-10-03T09:20:58.739Z,38.10
2022-10-03T09:24:25.744Z,39.50
2022-10-03T09:27:52.050Z,41.10
2022-10-03T09:30:55.163Z,42.00
2022-10-03T09:34:06.967Z,42.60
2022-10-03T09:37:31.370Z,43.00
2022-10-03T09:40:53.574Z,43.90
2022-10-03T09:44:19.424Z,45.10
2022-10-03T09:47:36.157Z,46.70
2022-10-03T09:50:54.146Z,47.70
2022-10-03T09:54:06.566Z,48.10
2022-10-03T09:57:39.061Z,47.40
2022-10-03T10:00:29.901Z,46.90
2022-10-03T10:04:02.101Z,46.90
2022-10-03T10:07:36.022Z,46.20
2022-10-03T10:10:39.101Z,46.70
2022-10-03T10:14:13.433Z,44.10
2022-10-03T10:17:36.133Z,44.00
2022-10-03T10:20:55.036Z,44.60
2022-10-03T10:23:54.637Z,40.70
2022-10-03T10:27:26.111Z,38.80
2022-10-03T10:30:23.201Z,39.00
2022-10-03T10:33:52.185Z,38.20
2022-10-03T10:37:21.932Z,39.40
2022-10-03T10:40:47.164Z,41.60
2022-10-03T10:44:03.558Z,44.90
2022-10-03T10:47:24.084Z,45.50
2022-10-03T10:50:31.747Z,45.40
2022-10-03T10:54:04.756Z,43.50
2022-10-03T10:57:16.071Z,42.30
2022-10-03T11:00:22.869Z,41.40
2022-10-03T11:04:01.142Z,43.90
2022-10-03T11:07:37.202Z,43.40
2022-10-03T11:10:36.733Z,42.10
2022-10-03T11:14:13.678Z,39.70
2022-10-03T11:17:39.274Z,40.00
2022-10-03T11:20:59.382Z,40.30
2022-10-03T11:24:11.080Z,40.70
2022-10-03T11:27:34.730Z,41.30
2022-10-03T11:31:12.756Z,42.10
2022-10-03T11:34:46.902Z,41.60
2022-10-03T11:37:45.125Z,41.80
2022-10-03T11:40:42.294Z,42.30
2022-10-03T11:44:05.041Z,42.90
2022-10-03T11:47:27.700Z,43.20
2022-10-03T11:50:48.530Z,42.80
2022-10-03T11:53:47.115Z,42.40
2022-10-03T11:56:39.206Z,41.60
2022-10-03T11:59:37.453Z,42.30
2022-10-03T12:02:51.897Z,42.50
2022-10-03T12:05:49.922Z,43.50
2022-10-03T12:08:55.842Z,44.10
2022-10-03T12:11:53.759Z,43.90
2022-10-03T12:14:46.738Z,44.20
2022-10-03T12:17:36.592Z,44.50
2022-10-03T12:20:31.482Z,45.20
2022-10-03T12:23:33.666Z,45.10
2022-10-03T12:26:30.131Z,45.60
2022-10-03T12:29:21.839Z,45.00
2022-10-03T12:32:27.471Z,45.00
2022-10-03T12:35:36.586Z,45.40
2022-10-03T12:38:42.512Z,45.90
2022-10-03T12:41:49.952Z,46.30
2022-10-03T12:44:47.903Z,46.10
2022-10-03T12:47:56.519Z,46.50
2022-10-03T12:50:48.696Z,46.40
2022-10-03T12:53:49.306Z,46.10
2022-10-03T12:56:45.780Z,46.10
2022-10-03T12:59:42.133Z,46.30
2022-10-03T13:02:35.563Z,47.20
2022-10-03T13:05:39.532Z,46.60
2022-10-03T13:08:52.643Z,46.60
2022-10-03T13:11:53.628Z,46.70
2022-10-03T13:15:04.087Z,47.20
2022-10-03T13:17:58.352Z,48.00
2022-10-03T13:20:54.829Z,48.90
2022-10-03T13:23:50.270Z,48.90
2022-10-03T13:26:52.379Z,50.20
2022-10-03T13:29:44.098Z,51.30
2022-10-03T13:32:34.229Z,51.90
2022-10-03T13:35:49.284Z,51.10
2022-10-03T13:39:03.239Z,51.40
2022-10-03T13:42:06.122Z,50.70
2022-10-03T13:44:56.048Z,49.90
2022-10-03T13:47:49.678Z,49.80
2022-10-03T13:50:47.222Z,49.20
2022-10-03T13:53:58.949Z,48.60
2022-10-03T13:56:53.678Z,48.90
2022-10-03T13:59:59.037Z,47.50
2022-10-03T14:07:16.342Z,47.20
2022-10-03T14:10:19.989Z,46.30
2022-10-03T14:13:22.612Z,46.30
2022-10-03T14:16:17.907Z,46.80
2022-10-03T14:19:13.166Z,47.20
2022-10-03T14:22:16.211Z,48.00
2022-10-03T14:25:21.823Z,48.90
2022-10-03T14:28:17.990Z,46.80
2022-10-03T14:31:11.399Z,44.90
2022-10-03T14:34:05.681Z,45.40
2022-10-03T14:36:59.453Z,45.70
2022-10-03T14:39:58.837Z,43.50
2022-10-03T14:43:06.589Z,44.10
2022-10-03T14:45:58.943Z,44.50
2022-10-03T14:48:51.107Z,45.50
2022-10-03T14:51:41.642Z,45.50
2022-10-03T14:54:30.916Z,46.70
2022-10-03T14:57:26.590Z,46.50
